Time;durP1;ratioP1;P1;durP2;ratioP2;P2;SDS_P1;SDS_P2;PMS_P1;PMS_P2;Temp;Humidity;BMP_temperature;BMP_pressure;BME280_temperature;BME280_humidity;BME280_pressure;Samples;Min_cycle;Max_cycle;Signal;HPM_P1;HPM_P2
2022/06/16 00:01:30;;;;;;;4.43;2.05;;;12.70;99.90;12.70;98278.00;;;;4981657;28;88573;-57
2022/06/16 00:03:57;;;;;;;5.75;2.10;;;12.70;99.90;12.70;98278.00;;;;4981256;28;88028;-56
2022/06/16 00:06:23;;;;;;;6.28;2.30;;;12.70;99.90;12.70;98278.00;;;;4982357;28;87298;-56
2022/06/16 00:08:49;;;;;;;5.78;2.00;;;12.70;99.90;12.70;98287.00;;;;4982312;28;87648;-56
2022/06/16 00:11:19;;;;;;;2.38;2.08;;;12.60;99.90;12.70;98287.00;;;;4982341;28;88406;-56
2022/06/16 00:13:47;;;;;;;2.97;2.20;;;12.60;99.90;12.70;98282.00;;;;4982196;28;86944;-57
2022/06/16 00:16:13;;;;;;;4.05;2.03;;;12.70;99.90;12.70;98284.00;;;;4982104;28;87336;-56
2022/06/16 00:18:41;;;;;;;3.85;2.25;;;12.70;99.90;12.80;98280.00;;;;4981753;28;88630;-57
2022/06/16 00:21:08;;;;;;;3.92;1.83;;;12.70;99.90;12.80;98272.00;;;;4982096;28;88191;-57
2022/06/16 00:23:35;;;;;;;5.60;2.17;;;12.70;99.90;12.90;98283.00;;;;4982510;28;86997;-57
2022/06/16 00:26:01;;;;;;;6.43;2.20;;;12.80;99.90;12.90;98284.00;;;;4964775;28;87178;-57
2022/06/16 00:28:27;;;;;;;7.35;2.58;;;12.90;99.90;13.00;98272.00;;;;4964322;28;88303;-56
2022/06/16 00:31:04;;;;;;;2.17;1.98;;;12.90;99.90;13.00;98278.00;;;;4964355;28;87419;-56
2022/06/16 00:33:31;;;;;;;4.10;2.10;;;12.90;99.90;13.00;98285.00;;;;4981868;28;87149;-55
2022/06/16 00:35:57;;;;;;;5.68;2.20;;;13.00;99.90;13.00;98284.00;;;;4964302;28;86419;-57
2022/06/16 00:38:24;;;;;;;4.55;1.80;;;13.00;99.90;13.00;98273.00;;;;4981162;28;88205;-56
2022/06/16 00:40:51;;;;;;;2.90;1.65;;;13.00;99.90;13.00;98286.00;;;;4982210;28;87480;-56
2022/06/16 00:43:18;;;;;;;4.18;1.95;;;12.90;99.90;13.00;98280.00;;;;4981188;28;88032;-57
2022/06/16 00:45:55;;;;;;;8.10;2.33;;;13.00;99.90;13.00;98279.00;;;;4964087;28;86944;-56
2022/06/16 00:48:42;;;;;;;5.93;2.20;;;12.90;99.90;12.90;98281.00;;;;4980875;28;87699;-56
2022/06/16 00:51:40;;;;;;;6.38;2.20;;;12.90;99.90;12.80;98287.00;;;;4961228;28;88195;-57
2022/06/16 00:54:20;;;;;;;5.43;2.20;;;12.90;99.90;12.70;98289.00;;;;4960281;28;87450;-54
2022/06/16 00:56:49;;;;;;;2.78;2.10;;;12.70;99.90;12.60;98279.00;;;;4948318;28;86992;-56
2022/06/16 00:59:15;;;;;;;5.70;2.40;;;12.60;99.90;12.60;98278.00;;;;4964070;28;87798;-57
2022/06/16 01:01:43;;;;;;;5.10;2.13;;;12.60;99.90;12.50;98285.00;;;;4981936;28;88335;-57
2022/06/16 01:06:58;;;;;;;6.05;2.50;;;12.50;99.90;12.40;98286.00;;;;4981369;28;87629;-56
2022/06/16 01:09:29;;;;;;;4.60;1.80;;;12.40;99.90;12.40;98284.00;;;;4963513;28;88684;-56
2022/06/16 01:15:07;;;;;;;6.93;2.70;;;12.30;99.90;12.30;98291.00;;;;4981508;28;87041;-56
2022/06/16 01:17:42;;;;;;;4.77;2.40;;;12.30;99.90;12.30;98299.00;;;;4979416;28;86877;-57
2022/06/16 01:20:25;;;;;;;3.35;2.10;;;12.30;99.90;12.20;98293.00;;;;4977685;28;87685;-57
2022/06/16 01:23:19;;;;;;;3.60;2.40;;;12.20;99.90;12.20;98288.00;;;;4961915;28;87196;-57
2022/06/16 01:26:16;;;;;;;3.83;2.15;;;12.20;99.90;12.20;98295.00;;;;4942838;28;87345;-56
2022/06/16 01:29:23;;;;;;;4.32;2.33;;;12.20;99.90;12.20;98295.00;;;;5013313;28;86246;-56
2022/06/16 01:32:09;;;;;;;2.63;2.35;;;12.20;99.90;12.20;98299.00;;;;4977532;28;87734;-56
2022/06/16 01:34:48;;;;;;;8.40;2.15;;;12.20;99.90;12.20;98301.00;;;;4947832;28;89760;-57
2022/06/16 01:37:31;;;;;;;5.05;2.10;;;12.20;99.90;12.20;98298.00;;;;4963346;28;87980;-56
2022/06/16 01:40:08;;;;;;;8.18;2.35;;;12.20;99.90;12.20;98304.00;;;;4961176;28;87542;-57
2022/06/16 01:42:44;;;;;;;5.47;2.45;;;12.20;99.90;12.30;98299.00;;;;4979775;28;87522;-56
2022/06/16 01:45:30;;;;;;;9.55;2.20;;;12.30;99.90;12.30;98317.00;;;;4962125;28;87568;-57
2022/06/16 01:47:58;;;;;;;5.07;2.53;;;12.30;99.90;12.40;98310.00;;;;4995976;28;86981;-56
2022/06/16 01:50:36;;;;;;;3.28;2.10;;;12.40;99.90;12.50;98315.00;;;;4947243;28;87049;-57
2022/06/16 01:53:40;;;;;;;5.60;2.08;;;12.50;99.90;12.80;98316.00;;;;4963064;28;88203;-57
2022/06/16 01:56:32;;;;;;;5.00;2.00;;;12.70;99.90;13.40;98319.00;;;;4950488;28;88367;-57
2022/06/16 01:59:17;;;;;;;6.10;1.85;;;13.20;99.90;13.70;98335.00;;;;4966680;28;87154;-56
2022/06/16 02:01:49;;;;;;;3.88;1.80;;;13.50;99.90;13.60;98335.00;;;;4963891;28;86903;-57
2022/06/16 02:04:26;;;;;;;5.70;1.73;;;13.40;99.90;13.50;98327.00;;;;4949909;28;89743;-56
2022/06/16 02:06:58;;;;;;;5.00;1.90;;;13.40;99.90;13.50;98330.00;;;;4983734;28;89639;-57
2022/06/16 02:09:36;;;;;;;3.78;1.90;;;13.30;99.90;13.50;98329.00;;;;4984825;28;87010;-57
2022/06/16 02:12:09;;;;;;;4.25;1.80;;;13.40;99.90;13.40;98330.00;;;;4950665;28;87340;-57
2022/06/16 02:14:45;;;;;;;4.78;2.15;;;13.30;99.90;13.50;98321.00;;;;4963754;28;88889;-56
2022/06/16 02:17:34;;;;;;;3.83;1.85;;;13.30;99.90;13.40;98326.00;;;;4956707;28;87436;-56
2022/06/16 02:20:00;;;;;;;2.78;1.60;;;13.30;99.90;13.40;98329.00;;;;4949165;28;87486;-57
2022/06/16 02:22:27;;;;;;;4.50;1.83;;;13.30;99.90;13.40;98337.00;;;;4969561;28;86375;-57
2022/06/16 02:24:53;;;;;;;2.50;1.85;;;13.30;99.90;13.40;98337.00;;;;4983264;28;88601;-56
2022/06/16 02:27:20;;;;;;;2.50;1.58;;;13.20;99.90;13.40;98337.00;;;;4966744;28;87171;-55
2022/06/16 02:29:46;;;;;;;3.70;1.73;;;13.30;99.90;13.50;98319.00;;;;4966187;28;88291;-56
2022/06/16 02:33:03;;;;;;;4.60;1.80;;;13.40;99.90;14.40;98334.00;;;;4984086;28;87025;-56
2022/06/16 02:35:54;;;;;;;7.45;1.77;;;14.10;99.90;15.30;98344.00;;;;4960293;28;87697;-57
2022/06/16 02:39:03;;;;;;;3.22;1.30;;;14.90;99.90;15.90;98343.00;;;;4971264;28;87281;-56
2022/06/16 02:41:39;;;;;;;2.13;1.10;;;15.50;99.90;16.50;98344.00;;;;4962244;28;86968;-56
2022/06/16 02:44:24;;;;;;;4.40;1.15;;;16.20;99.90;17.40;98349.00;;;;4949280;28;87461;-56
2022/06/16 02:47:05;;;;;;;5.07;1.33;;;16.80;99.90;17.50;98354.00;;;;4976506;28;88773;-57
2022/06/16 02:49:50;;;;;;;8.10;1.63;;;16.80;99.90;17.30;98357.00;;;;4950186;28;88986;-57
2022/06/16 02:52:38;;;;;;;3.55;1.20;;;16.80;99.90;16.40;98354.00;;;;4981133;28;86947;-56
2022/06/16 02:55:25;;;;;;;3.75;1.40;;;16.00;99.90;15.90;98354.00;;;;4965929;28;86972;-57
2022/06/16 02:57:59;;;;;;;7.97;1.38;;;15.60;99.90;15.60;98360.00;;;;4951202;28;88570;-54
2022/06/16 03:00:51;;;;;;;4.72;1.50;;;15.40;99.90;15.40;98351.00;;;;4964502;28;89212;-56
2022/06/16 03:03:29;;;;;;;;;;;15.20;99.90;15.40;98361.00;;;;4983551;28;87130;-55
2022/06/16 03:06:07;;;;;;;3.75;1.50;;;15.20;99.90;15.30;98357.00;;;;4966123;28;87265;-57
2022/06/16 03:08:41;;;;;;;9.02;1.38;;;15.10;99.90;15.10;98360.00;;;;4980643;28;87700;-57
2022/06/16 03:11:11;;;;;;;3.38;1.52;;;15.00;99.90;15.20;98363.00;;;;4949800;28;87256;-57
2022/06/16 03:13:38;;;;;;;4.13;1.40;;;15.00;99.90;15.30;98361.00;;;;4965172;28;87002;-57
2022/06/16 03:16:04;;;;;;;2.90;1.35;;;15.10;99.90;15.40;98349.00;;;;4965624;28;87168;-57
2022/06/16 03:18:32;;;;;;;3.78;1.70;;;15.10;99.90;15.60;98346.00;;;;4969038;28;88899;-57
2022/06/16 03:20:59;;;;;;;2.75;1.40;;;15.40;99.90;15.90;98354.00;;;;4964965;28;87320;-57
2022/06/16 03:23:25;;;;;;;3.97;1.50;;;15.60;99.90;16.20;98356.00;;;;4964911;28;88009;-57
2022/06/16 03:25:53;;;;;;;6.35;1.60;;;15.80;99.90;16.10;98362.00;;;;4965029;28;87322;-57
2022/06/16 03:28:20;;;;;;;4.28;1.23;;;15.60;99.90;16.10;98353.00;;;;4982076;28;89122;-57
2022/06/16 03:30:46;;;;;;;3.13;1.23;;;15.80;99.90;16.50;98349.00;;;;4964968;28;87229;-57
2022/06/16 03:33:16;;;;;;;4.22;1.40;;;16.30;99.90;17.10;98357.00;;;;4964996;28;87036;-57
2022/06/16 03:35:47;;;;;;;2.88;1.25;;;16.70;99.90;17.60;98353.00;;;;4964762;28;87146;-57
2022/06/16 03:40:43;;;;;;;5.85;1.45;;;17.60;99.90;18.20;98354.00;;;;4971934;28;87236;-57
2022/06/16 03:43:09;;;;;;;4.38;1.40;;;17.70;99.90;18.60;98362.00;;;;4964535;28;87022;-57
2022/06/16 03:45:38;;;;;;;9.35;1.42;;;18.20;99.90;18.90;98364.00;;;;4964808;28;87025;-57
2022/06/16 03:48:05;;;;;;;2.35;1.30;;;18.50;99.90;19.00;98364.00;;;;4980848;28;88664;-56
2022/06/16 03:50:35;;;;;;;3.15;1.00;;;18.40;99.90;19.10;98365.00;;;;4964448;28;89521;-57
2022/06/16 03:53:03;;;;;;;3.95;1.52;;;18.70;99.90;19.40;98367.00;;;;4965646;28;87564;-56
2022/06/16 03:55:31;;;;;;;2.72;1.10;;;19.00;99.90;19.70;98363.00;;;;4964933;28;87008;-56
2022/06/16 03:57:58;;;;;;;3.97;1.20;;;19.10;99.90;20.10;98366.00;;;;4964984;28;87619;-56
2022/06/16 04:00:27;;;;;;;3.67;1.23;;;19.50;99.90;20.30;98365.00;;;;4964847;28;87643;-56
2022/06/16 04:05:48;;;;;;;4.43;1.13;;;19.50;99.90;20.20;98374.00;;;;4965704;28;86651;-57
2022/06/16 04:08:16;;;;;;;6.93;1.40;;;19.60;99.90;19.90;98377.00;;;;4964816;28;87615;-57
2022/06/16 04:10:44;;;;;;;3.35;1.13;;;19.50;99.90;20.20;98375.00;;;;4964576;28;87106;-57
2022/06/16 04:13:10;;;;;;;4.68;1.40;;;19.60;99.90;20.70;98382.00;;;;4964251;28;87956;-56
2022/06/16 04:15:37;;;;;;;6.00;1.45;;;20.10;99.90;20.80;98380.00;;;;4964779;28;87447;-56
2022/06/16 04:18:05;;;;;;;1.77;1.08;;;20.30;99.90;20.60;98383.00;;;;4964407;28;88630;-56
2022/06/16 04:20:36;;;;;;;5.25;1.20;;;20.10;99.90;20.90;98377.00;;;;4964421;28;88766;-57
2022/06/16 04:23:12;;;;;;;5.25;1.10;;;20.20;99.90;21.20;98377.00;;;;4962062;28;86980;-56
2022/06/16 04:25:41;;;;;;;5.43;1.30;;;20.60;99.90;21.10;98383.00;;;;4964891;28;87105;-55
2022/06/16 04:28:14;;;;;;;7.60;1.30;;;20.30;99.90;21.00;98373.00;;;;4964696;28;88789;-58
2022/06/16 04:30:53;;;;;;;3.63;1.10;;;20.30;99.90;20.40;98367.00;;;;4965109;28;88171;-57
2022/06/16 04:33:23;;;;;;;5.22;1.60;;;19.90;99.90;20.90;98378.00;;;;4965029;28;86999;-56
2022/06/16 04:35:51;;;;;;;5.10;1.58;;;20.30;99.90;21.20;98376.00;;;;4948089;28;87019;-56
2022/06/16 04:38:23;;;;;;;2.35;1.08;;;20.50;99.90;21.40;98379.00;;;;4955463;28;88368;-58
2022/06/16 04:40:50;;;;;;;3.63;1.92;;;20.70;99.90;21.30;98383.00;;;;4963089;28;89317;-57
2022/06/16 04:43:17;;;;;;;5.75;1.20;;;20.60;99.90;21.30;98377.00;;;;4960959;28;88072;-60
2022/06/16 04:45:51;;;;;;;2.25;1.20;;;20.60;99.90;21.20;98387.00;;;;4960689;28;86935;-59
2022/06/16 04:48:21;;;;;;;4.60;1.52;;;20.70;99.90;21.20;98384.00;;;;4960117;28;87919;-58
2022/06/16 04:50:47;;;;;;;5.13;1.42;;;20.50;99.90;21.10;98393.00;;;;4960908;28;87648;-58
2022/06/16 04:53:18;;;;;;;2.67;1.33;;;20.40;99.90;21.20;98396.00;;;;4960123;28;87443;-59
2022/06/16 04:56:07;;;;;;;5.13;1.20;;;20.60;99.90;21.80;98393.00;;;;4961079;28;86368;-59
2022/06/16 04:58:41;;;;;;;3.08;1.50;;;21.00;99.90;21.70;98390.00;;;;4956617;28;87755;-58
2022/06/16 05:01:28;;;;;;;5.32;1.00;;;21.00;99.90;21.80;98388.00;;;;4929436;28;87380;-60
2022/06/16 05:04:29;;;;;;;;;;;21.10;99.90;22.20;98388.00;;;;4901603;28;87972;-58
2022/06/16 05:07:04;;;;;;;4.35;1.20;;;21.30;99.90;22.50;98395.00;;;;4951781;28;87260;-58
2022/06/16 05:09:53;;;;;;;6.97;1.52;;;21.70;99.90;23.10;98388.00;;;;4960705;28;88711;-59
2022/06/16 05:12:45;;;;;;;4.15;1.30;;;22.20;99.90;23.20;98383.00;;;;4958991;28;87248;-59
2022/06/16 05:15:12;;;;;;;3.28;1.67;;;22.20;99.90;23.00;98389.00;;;;4960622;28;87629;-59
2022/06/16 05:18:02;;;;;;;10.85;2.28;;;22.30;99.90;23.50;98392.00;;;;4950263;28;87058;-59
2022/06/16 05:20:47;;;;;;;7.80;1.67;;;22.60;99.90;23.60;98400.00;;;;4959568;28;89183;-58
2022/06/16 05:23:40;;;;;;;4.38;1.30;;;22.80;99.90;23.50;98395.00;;;;4929973;28;87685;-59
2022/06/16 05:26:38;;;;;;;5.60;1.30;;;22.60;99.90;23.90;98391.00;;;;4938266;28;87095;-58
2022/06/16 05:29:21;;;;;;;2.85;1.35;;;23.00;99.90;24.00;98403.00;;;;4958657;28;86944;-58
2022/06/16 05:32:07;;;;;;;8.15;1.30;;;23.10;99.90;24.30;98411.00;;;;4978210;28;88743;-58
2022/06/16 05:34:57;;;;;;;9.85;1.73;;;23.40;99.90;24.70;98401.00;;;;4946818;28;88250;-58
2022/06/16 05:37:46;;;;;;;3.97;1.55;;;23.80;99.90;24.70;98399.00;;;;4978337;28;87030;-57
2022/06/16 05:40:21;;;;;;;5.60;1.20;;;23.80;99.90;24.60;98394.00;;;;4964472;28;86955;-58
2022/06/16 05:43:16;;;;;;;4.82;1.10;;;23.80;99.90;24.40;98398.00;;;;4960504;28;88326;-58
2022/06/16 05:45:48;;;;;;;8.63;1.60;;;23.60;99.90;24.50;98407.00;;;;4960526;28;87472;-58
2022/06/16 05:48:40;;;;;;;6.43;1.65;;;23.60;99.90;24.00;98411.00;;;;4962683;28;87271;-58
2022/06/16 05:51:14;;;;;;;4.75;1.40;;;23.30;99.90;23.60;98408.00;;;;4963388;28;86669;-58
2022/06/16 05:53:52;;;;;;;3.08;1.20;;;22.90;99.90;24.10;98407.00;;;;4963043;28;87015;-58
2022/06/16 05:56:24;;;;;;;5.90;1.35;;;23.30;99.90;24.10;98407.00;;;;4959911;28;87323;-58
2022/06/16 05:58:51;;;;;;;7.80;1.25;;;23.40;99.90;23.60;98401.00;;;;4962790;28;88131;-58
2022/06/16 06:01:17;;;;;;;2.60;1.33;;;22.90;99.90;23.70;98400.00;;;;4959990;28;87491;-56
2022/06/16 06:03:44;;;;;;;4.10;1.33;;;23.00;99.90;24.10;98397.00;;;;4978966;28;89635;-58
2022/06/16 06:06:11;;;;;;;9.70;1.48;;;23.40;99.90;24.40;98400.00;;;;4963051;28;86956;-58
2022/06/16 06:17:21;;;;;;;9.40;1.42;;;22.50;99.90;23.50;98411.00;;;;4955137;28;87448;-57
2022/06/16 06:19:52;;;;;;;5.80;1.60;;;22.70;99.90;23.90;98412.00;;;;4930736;28;86998;-57
2022/06/16 06:22:24;;;;;;;7.40;2.58;;;23.20;99.90;24.00;98405.00;;;;4962060;28;87242;-57
2022/06/16 06:24:58;;;;;;;11.68;1.73;;;23.20;99.90;23.50;98406.00;;;;4959815;28;88707;-57
2022/06/16 06:27:37;;;;;;;4.07;1.40;;;22.70;99.90;23.50;98405.00;;;;4995525;28;87084;-56
2022/06/16 06:30:20;;;;;;;5.35;1.40;;;22.80;99.90;23.50;98398.00;;;;4946730;28;87681;-57
2022/06/16 06:32:47;;;;;;;7.30;2.65;;;22.70;99.90;23.10;98401.00;;;;4963419;28;87598;-57
2022/06/16 06:35:14;;;;;;;12.25;2.28;;;22.60;99.90;22.30;98396.00;;;;4963683;28;87794;-57
2022/06/16 06:37:42;;;;;;;2.85;1.27;;;21.90;99.90;21.80;98398.00;;;;4962296;28;87328;-55
2022/06/16 06:40:16;;;;;;;4.43;1.58;;;21.60;99.90;21.70;98403.00;;;;4963860;28;86997;-57
2022/06/16 06:42:42;;;;;;;5.53;1.73;;;21.60;99.90;21.70;98397.00;;;;4976997;28;86145;-56
2022/06/16 06:45:11;;;;;;;3.70;1.27;;;21.50;99.90;21.40;98402.00;;;;4970849;28;87800;-56
2022/06/16 06:47:37;;;;;;;4.55;1.00;;;21.40;99.90;21.30;98399.00;;;;4982528;28;87132;-57
2022/06/16 06:50:03;;;;;;;6.05;1.13;;;21.20;99.90;21.40;98399.00;;;;4981732;28;87988;-56
2022/06/16 06:52:30;;;;;;;5.60;1.33;;;21.30;99.90;21.30;98391.00;;;;4980181;28;87550;-56
2022/06/16 06:54:56;;;;;;;7.90;1.33;;;21.10;99.90;21.40;98390.00;;;;4982720;28;87724;-57
2022/06/16 06:57:30;;;;;;;2.67;1.30;;;21.50;99.90;21.80;98392.00;;;;4982516;28;87510;-57
2022/06/16 06:59:56;;;;;;;3.67;1.10;;;21.50;99.90;21.90;98395.00;;;;4982079;28;86964;-57
2022/06/16 07:02:22;;;;;;;4.20;1.30;;;21.60;99.90;22.00;98388.00;;;;4982442;28;87788;-58
2022/06/16 07:04:49;;;;;;;2.42;1.15;;;21.60;99.90;22.00;98404.00;;;;4982238;28;87696;-57
2022/06/16 07:07:20;;;;;;;5.90;2.15;;;21.60;99.90;22.00;98390.00;;;;4964587;28;87776;-56
2022/06/16 07:09:46;;;;;;;5.38;1.38;;;21.70;99.90;21.80;98394.00;;;;4964971;28;88008;-57
2022/06/16 07:12:13;;;;;;;4.07;1.58;;;21.50;99.90;21.60;98403.00;;;;4982402;28;87000;-57
2022/06/16 07:14:50;;;;;;;3.20;0.98;;;21.30;99.90;21.50;98397.00;;;;4981009;28;88463;-57
2022/06/16 07:17:21;;;;;;;3.72;1.17;;;21.20;99.90;21.30;98401.00;;;;4982519;28;88242;-57
2022/06/16 07:19:48;;;;;;;4.75;1.08;;;21.00;99.90;21.20;98403.00;;;;4979998;28;87046;-57
2022/06/16 07:22:14;;;;;;;9.00;1.13;;;20.90;99.90;20.90;98393.00;;;;4964824;28;87452;-57
2022/06/16 07:24:40;;;;;;;4.40;1.23;;;20.60;99.90;20.70;98398.00;;;;4982168;28;87702;-55
2022/06/16 07:27:07;;;;;;;7.82;1.40;;;20.40;99.90;20.50;98396.00;;;;4982291;28;87500;-57
2022/06/16 07:29:34;;;;;;;8.82;1.42;;;20.20;99.90;20.60;98393.00;;;;4982388;28;87336;-57
2022/06/16 07:32:00;;;;;;;7.90;1.17;;;20.60;99.90;21.10;98378.00;;;;4965509;28;86355;-55
2022/06/16 07:34:27;;;;;;;3.65;1.30;;;21.00;99.90;21.50;98387.00;;;;4982627;28;88314;-57
2022/06/16 07:36:54;;;;;;;5.25;1.40;;;21.40;99.90;22.00;98389.00;;;;4982017;28;87259;-55
2022/06/16 07:39:20;;;;;;;8.18;1.20;;;21.70;99.90;22.10;98386.00;;;;4964553;28;88364;-55
2022/06/16 07:41:46;;;;;;;4.05;0.90;;;21.80;99.90;22.10;98377.00;;;;4982345;28;87024;-57
2022/06/16 07:44:15;;;;;;;5.85;1.30;;;21.70;99.90;22.10;98379.00;;;;4981502;28;87867;-57
2022/06/16 07:46:44;;;;;;;3.10;0.90;;;21.80;99.90;22.00;98378.00;;;;4981172;28;87581;-56
2022/06/16 07:49:14;;;;;;;2.72;1.10;;;21.60;99.90;21.70;98370.00;;;;4981664;28;87108;-57
2022/06/16 07:51:42;;;;;;;4.30;1.10;;;21.50;99.90;21.60;98362.00;;;;4982200;28;86972;-56
2022/06/16 07:54:12;;;;;;;4.85;1.20;;;21.40;99.90;21.80;98367.00;;;;4963284;28;86991;-57
2022/06/16 07:56:38;;;;;;;5.00;1.20;;;21.60;99.90;21.80;98358.00;;;;4974763;28;87482;-57
2022/06/16 07:59:04;;;;;;;5.22;1.10;;;21.60;99.90;22.00;98359.00;;;;4981679;28;86956;-56
2022/06/16 08:01:30;;;;;;;6.25;1.10;;;21.80;99.90;22.20;98368.00;;;;4982446;28;87032;-56
2022/06/16 08:03:56;;;;;;;2.35;0.80;;;22.00;99.90;21.90;98361.00;;;;4981412;28;88664;-55
2022/06/16 08:06:26;;;;;;;6.88;1.23;;;21.80;99.90;21.90;98361.00;;;;4982112;28;89495;-55
2022/06/16 08:08:54;;;;;;;6.88;1.20;;;21.80;99.90;22.20;98366.00;;;;4981584;28;87097;-57
2022/06/16 08:14:05;;;;;;;2.10;0.90;;;21.90;99.90;22.20;98357.00;;;;4980927;28;88744;-55
2022/06/16 08:16:33;;;;;;;1.92;0.80;;;21.90;99.90;22.20;98352.00;;;;4981187;28;88100;-55
2022/06/16 08:19:03;;;;;;;2.25;0.70;;;22.00;99.90;22.00;98361.00;;;;4981937;28;86921;-56
2022/06/16 08:21:29;;;;;;;5.47;0.80;;;21.80;99.30;22.00;98364.00;;;;4981466;28;86663;-56
2022/06/16 08:23:55;;;;;;;3.47;1.08;;;21.80;97.90;22.00;98363.00;;;;4981643;28;87806;-56
2022/06/16 08:26:22;;;;;;;4.97;1.02;;;21.80;99.90;22.20;98356.00;;;;4981414;28;88654;-56
2022/06/16 08:28:52;;;;;;;4.28;1.20;;;22.00;99.90;22.40;98364.00;;;;4980791;28;88299;-57
2022/06/16 08:31:20;;;;;;;5.97;0.90;;;22.20;99.90;22.50;98358.00;;;;4974535;28;88014;-57
2022/06/16 08:33:48;;;;;;;5.32;0.63;;;22.40;99.90;22.70;98362.00;;;;4980396;28;87409;-55
2022/06/16 08:36:15;;;;;;;4.50;0.95;;;22.50;99.90;22.70;98362.00;;;;4981396;28;86948;-56
2022/06/16 08:38:41;;;;;;;5.07;1.35;;;22.30;99.90;22.50;98368.00;;;;4980978;28;87615;-56
2022/06/16 08:41:11;;;;;;;6.40;1.00;;;22.10;99.90;22.20;98366.00;;;;4982145;28;87056;-55
2022/06/16 08:44:04;;;;;;;3.58;0.75;;;21.80;99.90;21.80;98363.00;;;;4980764;28;87538;-56
2022/06/16 08:46:41;;;;;;;4.13;1.20;;;21.50;99.90;21.50;98396.00;;;;4981209;28;87406;-55
2022/06/16 08:49:32;;;;;;;12.25;1.20;;;21.40;99.90;21.00;98382.00;;;;4979366;28;86912;-56
2022/06/16 08:52:21;;;;;;;11.25;1.55;;;20.60;99.90;20.20;98388.00;;;;4980416;28;87022;-57
2022/06/16 08:55:24;;;;;;;11.77;1.65;;;20.00;99.90;19.90;98396.00;;;;4975317;28;89222;-57
2022/06/16 08:58:14;;;;;;;7.38;1.30;;;19.80;99.90;19.80;98380.00;;;;4961001;28;87153;-56
2022/06/16 09:00:50;;;;;;;6.03;1.30;;;19.50;99.90;19.80;98375.00;;;;4950131;28;87083;-56
2022/06/16 09:03:45;;;;;;;7.45;1.35;;;19.60;99.90;20.20;98383.00;;;;4963972;28;87162;-55
2022/06/16 09:06:14;;;;;;;6.53;1.55;;;19.90;99.90;20.20;98385.00;;;;4980280;28;87628;-57
2022/06/16 09:09:09;;;;;;;4.88;1.20;;;20.00;99.90;20.20;98389.00;;;;4980840;28;87151;-57
2022/06/16 09:11:54;;;;;;;6.38;1.10;;;20.00;99.90;20.50;98389.00;;;;4955497;28;87107;-56
2022/06/16 09:15:11;;;;;;;9.07;1.20;;;20.20;99.90;20.40;98385.00;;;;4963801;28;86668;-55
2022/06/16 09:18:11;;;;;;;3.33;1.00;;;20.00;99.90;20.00;98394.00;;;;4976542;28;87546;-55
2022/06/16 09:20:46;;;;;;;7.72;1.65;;;19.80;99.90;19.30;98398.00;;;;4972436;28;87081;-56
2022/06/16 09:23:45;;;;;;;7.43;1.50;;;19.00;99.90;18.80;98393.00;;;;4980980;28;87925;-60
2022/06/16 09:26:31;;;;;;;6.85;1.17;;;18.60;99.90;18.60;98390.00;;;;4973890;28;86917;-59
2022/06/16 09:29:12;;;;;;;3.45;1.40;;;18.50;99.90;18.60;98385.00;;;;4963234;28;87462;-60
2022/06/16 09:32:04;;;;;;;3.20;1.20;;;18.60;99.90;18.70;98379.00;;;;4961833;28;87958;-59
2022/06/16 09:34:44;;;;;;;4.70;1.45;;;18.70;99.90;18.90;98370.00;;;;4961700;28;87208;-60
2022/06/16 09:37:31;;;;;;;4.03;1.30;;;19.00;99.90;19.10;98373.00;;;;4961473;28;87095;-60
2022/06/16 09:40:04;;;;;;;4.60;1.05;;;19.20;99.90;19.30;98376.00;;;;4963823;28;87539;-60
2022/06/16 09:42:42;;;;;;;3.08;0.88;;;19.40;99.90;19.50;98372.00;;;;4960037;28;88775;-60
2022/06/16 09:45:31;;;;;;;4.18;1.13;;;19.60;99.90;19.70;98362.00;;;;4959682;28;87343;-60
2022/06/16 09:48:32;;;;;;;2.97;1.77;;;19.80;99.90;20.10;98367.00;;;;4960068;28;87135;-60
2022/06/16 09:51:14;;;;;;;2.65;1.30;;;20.10;99.90;20.40;98376.00;;;;4958864;28;89656;-61
2022/06/16 09:53:48;;;;;;;7.97;1.10;;;20.30;99.90;20.30;98366.00;;;;4960486;28;88118;-63
2022/06/16 09:56:57;;;;;;;6.47;1.38;;;20.20;99.90;20.40;98354.00;;;;4957626;28;86988;-60
2022/06/16 09:59:45;;;;;;;3.88;1.13;;;20.20;99.90;20.60;98354.00;;;;4959908;28;87044;-60
2022/06/16 10:02:50;;;;;;;2.55;0.95;;;20.40;99.90;20.80;98366.00;;;;4959987;28;87753;-60
2022/06/16 10:05:31;;;;;;;3.50;1.58;;;20.60;99.90;20.70;98366.00;;;;4931795;28;88162;-60
2022/06/16 10:08:26;;;;;;;2.95;1.02;;;20.50;99.90;20.70;98357.00;;;;4960881;28;87073;-60
2022/06/16 10:11:16;;;;;;;3.28;0.80;;;20.60;99.90;20.80;98357.00;;;;4955146;28;86158;-60
2022/06/16 10:14:06;;;;;;;8.68;0.90;;;20.60;99.90;20.80;98350.00;;;;4960494;28;87138;-60
2022/06/16 10:17:06;;;;;;;4.20;0.90;;;20.60;99.90;20.90;98359.00;;;;4958042;28;88946;-60
2022/06/16 10:19:38;;;;;;;3.72;0.90;;;20.80;99.90;20.80;98356.00;;;;4961419;28;88913;-60
2022/06/16 10:22:07;;;;;;;3.47;0.98;;;20.70;99.90;20.80;98345.00;;;;4963384;28;87113;-60
2022/06/16 10:24:47;;;;;;;3.10;1.00;;;20.60;99.90;21.00;98354.00;;;;4963862;28;87636;-60
2022/06/16 10:27:16;;;;;;;4.35;1.85;;;20.90;99.90;21.10;98361.00;;;;4963348;28;87411;-60
2022/06/16 10:29:58;;;;;;;1.13;0.88;;;20.90;99.90;21.20;98353.00;;;;4963074;28;87105;-60
2022/06/16 10:32:47;;;;;;;1.30;0.80;;;21.00;99.90;21.20;98348.00;;;;4962557;28;87514;-60
2022/06/16 10:35:20;;;;;;;6.93;0.98;;;21.00;99.90;21.20;98355.00;;;;4963436;28;87554;-60
2022/06/16 10:37:50;;;;;;;7.70;1.27;;;21.00;99.90;21.30;98349.00;;;;4959457;28;88523;-59
2022/06/16 10:40:26;;;;;;;5.65;1.05;;;21.00;99.90;21.40;98345.00;;;;4962103;28;87267;-59
2022/06/16 10:43:00;;;;;;;3.05;1.00;;;21.10;99.90;21.40;98357.00;;;;4975850;28;86867;-59
2022/06/16 10:45:31;;;;;;;4.65;1.00;;;21.20;99.90;21.50;98344.00;;;;4982115;28;87913;-59
2022/06/16 10:48:06;;;;;;;4.45;0.90;;;21.30;99.90;21.60;98331.00;;;;4982644;28;88217;-60
2022/06/16 10:51:20;;;;;;;5.20;0.98;;;21.40;99.90;21.80;98347.00;;;;4981193;28;88052;-59
2022/06/16 10:54:13;;;;;;;3.92;0.93;;;21.50;99.90;21.80;98349.00;;;;4974806;28;87066;-59
2022/06/16 10:56:40;;;;;;;1.83;1.00;;;21.60;99.90;22.00;98345.00;;;;4979581;28;87805;-60
2022/06/16 10:59:28;;;;;;;3.33;1.35;;;21.70;99.90;22.10;98359.00;;;;4982131;28;87908;-60
2022/06/16 11:02:28;;;;;;;1.77;0.80;;;21.80;99.90;22.20;98344.00;;;;4982911;28;87030;-59
2022/06/16 11:05:14;;;;;;;2.17;0.93;;;21.90;99.90;22.40;98356.00;;;;4957977;28;86230;-59
2022/06/16 11:07:45;;;;;;;3.92;0.90;;;22.20;99.90;22.30;98341.00;;;;4982358;28;87882;-60
2022/06/16 11:10:33;;;;;;;3.63;0.90;;;21.90;99.90;22.30;98345.00;;;;4982742;28;88575;-61
2022/06/16 11:13:00;;;;;;;4.90;0.90;;;22.10;99.90;22.70;98348.00;;;;4974641;28;88355;-59
2022/06/16 11:15:40;;;;;;;2.17;0.90;;;22.50;99.90;22.90;98354.00;;;;4982474;28;86954;-59
2022/06/16 11:18:12;;;;;;;2.63;0.80;;;22.80;99.90;23.00;98336.00;;;;4965084;28;86962;-59
2022/06/16 11:20:49;;;;;;;5.35;1.10;;;22.70;99.90;23.40;98347.00;;;;4981705;28;87554;-59
2022/06/16 11:23:30;;;;;;;2.40;0.90;;;23.10;99.90;23.30;98352.00;;;;4965261;28;86985;-59
2022/06/16 11:26:20;;;;;;;3.55;0.77;;;23.00;98.50;22.90;98352.00;;;;4964396;28;87096;-60
2022/06/16 11:28:56;;;;;;;3.92;0.90;;;22.20;99.90;22.50;98344.00;;;;4981059;28;87612;-60
2022/06/16 11:31:48;;;;;;;1.83;0.98;;;22.10;98.80;22.40;98351.00;;;;4983075;28;87251;-57
2022/06/16 11:34:28;;;;;;;5.38;1.92;;;21.90;98.40;22.30;98352.00;;;;4981980;28;86970;-59
2022/06/16 11:37:31;;;;;;;2.88;0.80;;;21.80;98.80;22.10;98351.00;;;;4981628;28;87860;-58
2022/06/16 11:40:07;;;;;;;1.52;0.90;;;21.80;99.10;22.20;98349.00;;;;4964728;28;89150;-59
2022/06/16 11:43:01;;;;;;;2.90;0.77;;;21.90;99.90;22.50;98340.00;;;;4964249;28;88473;-58
2022/06/16 11:45:33;;;;;;;5.85;0.90;;;22.20;99.60;22.50;98344.00;;;;4981611;28;87378;-61
2022/06/16 11:48:27;;;;;;;9.85;1.02;;;22.10;99.40;22.70;98358.00;;;;4980958;28;87837;-58
2022/06/16 11:51:17;;;;;;;3.67;1.00;;;22.50;99.60;23.00;98344.00;;;;4978163;28;87801;-58
2022/06/16 11:54:22;;;;;;;4.95;0.90;;;22.70;98.40;22.70;98343.00;;;;4981657;28;87152;-59
2022/06/16 11:56:57;;;;;;;6.13;0.75;;;22.60;99.90;23.00;98338.00;;;;4981249;28;87026;-59
2022/06/16 11:59:54;;;;;;;2.17;0.90;;;22.70;97.90;23.30;98340.00;;;;4981817;28;86372;-60